sensor_id;sensor_type;location;lat;lon;timestamp;pressure;altitude;pressure_sealevel;temperature;humidity
39177;BME280;24904;52.208;21.192;2023-12-20T00:02:28;99699.97;;;6.77;89.88
39177;BME280;24904;52.208;21.192;2023-12-20T00:07:33;99694.86;;;6.75;89.81
39177;BME280;24904;52.208;21.192;2023-12-20T00:12:38;99687.28;;;6.69;89.91
39177;BME280;24904;52.208;21.192;2023-12-20T00:17:44;99677.48;;;6.65;89.91
39177;BME280;24904;52.208;21.192;2023-12-20T00:22:49;99679.13;;;6.66;90.18
39177;BME280;24904;52.208;21.192;2023-12-20T00:27:54;99679.90;;;6.65;90.25
39177;BME280;24904;52.208;21.192;2023-12-20T00:32:59;99672.36;;;6.66;90.26
39177;BME280;24904;52.208;21.192;2023-12-20T00:38:04;99668.73;;;6.63;90.52
39177;BME280;24904;52.208;21.192;2023-12-20T00:43:10;99658.15;;;6.65;90.60
39177;BME280;24904;52.208;21.192;2023-12-20T00:48:15;99654.14;;;6.69;90.68
39177;BME280;24904;52.208;21.192;2023-12-20T00:53:20;99649.52;;;6.66;90.61
39177;BME280;24904;52.208;21.192;2023-12-20T00:58:25;99645.71;;;6.67;90.82
39177;BME280;24904;52.208;21.192;2023-12-20T01:03:31;99648.02;;;6.65;90.68
39177;BME280;24904;52.208;21.192;2023-12-20T01:08:36;99645.80;;;6.69;90.91
39177;BME280;24904;52.208;21.192;2023-12-20T01:13:42;99635.31;;;6.71;90.99
39177;BME280;24904;52.208;21.192;2023-12-20T01:18:47;99630.75;;;6.74;90.96
39177;BME280;24904;52.208;21.192;2023-12-20T01:23:53;99633.73;;;6.75;90.91
39177;BME280;24904;52.208;21.192;2023-12-20T01:28:58;99627.39;;;6.73;90.94
39177;BME280;24904;52.208;21.192;2023-12-20T01:34:03;99619.23;;;6.75;90.87
39177;BME280;24904;52.208;21.192;2023-12-20T01:39:08;99623.24;;;6.72;91.02
39177;BME280;24904;52.208;21.192;2023-12-20T01:44:13;99613.89;;;6.72;90.91
39177;BME280;24904;52.208;21.192;2023-12-20T01:49:18;99605.09;;;6.66;91.10
39177;BME280;24904;52.208;21.192;2023-12-20T01:54:24;99605.94;;;6.66;91.12
39177;BME280;24904;52.208;21.192;2023-12-20T01:59:30;99602.77;;;6.68;91.31
39177;BME280;24904;52.208;21.192;2023-12-20T02:04:35;99597.29;;;6.71;91.32
39177;BME280;24904;52.208;21.192;2023-12-20T02:09:41;99600.20;;;6.68;91.23
39177;BME280;24904;52.208;21.192;2023-12-20T02:14:46;99597.55;;;6.67;91.26
39177;BME280;24904;52.208;21.192;2023-12-20T02:19:51;99588.77;;;6.63;91.39
39177;BME280;24904;52.208;21.192;2023-12-20T02:24:56;99588.35;;;6.62;91.49
39177;BME280;24904;52.208;21.192;2023-12-20T02:30:01;99586.22;;;6.55;91.33
39177;BME280;24904;52.208;21.192;2023-12-20T02:35:07;99582.00;;;6.54;91.66
39177;BME280;24904;52.208;21.192;2023-12-20T02:40:13;99572.88;;;6.53;91.65
39177;BME280;24904;52.208;21.192;2023-12-20T02:45:18;99569.05;;;6.53;91.63
39177;BME280;24904;52.208;21.192;2023-12-20T02:50:23;99560.83;;;6.50;91.52
39177;BME280;24904;52.208;21.192;2023-12-20T02:55:28;99552.54;;;6.53;91.52
39177;BME280;24904;52.208;21.192;2023-12-20T03:00:33;99556.16;;;6.57;91.40
39177;BME280;24904;52.208;21.192;2023-12-20T03:05:38;99550.17;;;6.58;91.32
39177;BME280;24904;52.208;21.192;2023-12-20T03:10:43;99545.29;;;6.59;91.21
39177;BME280;24904;52.208;21.192;2023-12-20T03:15:48;99544.73;;;6.52;91.15
39177;BME280;24904;52.208;21.192;2023-12-20T03:20:53;99543.61;;;6.49;91.13
39177;BME280;24904;52.208;21.192;2023-12-20T03:25:58;99533.85;;;6.44;91.05
39177;BME280;24904;52.208;21.192;2023-12-20T03:31:04;99538.36;;;6.44;91.37
39177;BME280;24904;52.208;21.192;2023-12-20T03:36:09;99548.56;;;6.43;91.44
39177;BME280;24904;52.208;21.192;2023-12-20T03:41:14;99538.90;;;6.42;91.36
39177;BME280;24904;52.208;21.192;2023-12-20T03:46:19;99534.89;;;6.46;91.52
39177;BME280;24904;52.208;21.192;2023-12-20T03:51:25;99531.84;;;6.45;91.49
39177;BME280;24904;52.208;21.192;2023-12-20T03:56:30;99533.20;;;6.41;91.63
39177;BME280;24904;52.208;21.192;2023-12-20T04:01:35;99539.75;;;6.47;91.79
39177;BME280;24904;52.208;21.192;2023-12-20T04:06:40;99535.75;;;6.50;91.74
39177;BME280;24904;52.208;21.192;2023-12-20T04:11:46;99523.00;;;6.53;91.71
39177;BME280;24904;52.208;21.192;2023-12-20T04:16:51;99525.06;;;6.57;91.68
39177;BME280;24904;52.208;21.192;2023-12-20T04:21:56;99528.02;;;6.56;91.61
39177;BME280;24904;52.208;21.192;2023-12-20T04:27:01;99532.48;;;6.58;91.59
39177;BME280;24904;52.208;21.192;2023-12-20T04:32:07;99523.64;;;6.54;91.46
39177;BME280;24904;52.208;21.192;2023-12-20T04:37:12;99530.34;;;6.48;91.50
39177;BME280;24904;52.208;21.192;2023-12-20T04:42:17;99522.27;;;6.45;91.70
39177;BME280;24904;52.208;21.192;2023-12-20T04:47:22;99528.08;;;6.36;91.75
39177;BME280;24904;52.208;21.192;2023-12-20T04:52:28;99532.73;;;6.32;92.21
39177;BME280;24904;52.208;21.192;2023-12-20T04:57:33;99526.52;;;6.32;92.33
39177;BME280;24904;52.208;21.192;2023-12-20T05:02:38;99530.09;;;6.36;92.62
39177;BME280;24904;52.208;21.192;2023-12-20T05:07:43;99525.35;;;6.37;92.56
39177;BME280;24904;52.208;21.192;2023-12-20T05:12:48;99518.42;;;6.37;92.78
39177;BME280;24904;52.208;21.192;2023-12-20T05:17:53;99512.67;;;6.39;92.79
39177;BME280;24904;52.208;21.192;2023-12-20T05:22:59;99510.03;;;6.39;92.77
39177;BME280;24904;52.208;21.192;2023-12-20T05:32:57;99506.73;;;6.43;92.75
39177;BME280;24904;52.208;21.192;2023-12-20T05:38:00;99504.60;;;6.41;92.66
39177;BME280;24904;52.208;21.192;2023-12-20T05:43:03;99502.02;;;6.45;92.64
39177;BME280;24904;52.208;21.192;2023-12-20T05:48:07;99508.20;;;6.42;92.58
39177;BME280;24904;52.208;21.192;2023-12-20T05:53:10;99509.27;;;6.46;92.75
39177;BME280;24904;52.208;21.192;2023-12-20T05:58:13;99506.32;;;6.53;92.79
39177;BME280;24904;52.208;21.192;2023-12-20T06:03:16;99501.77;;;6.57;92.71
39177;BME280;24904;52.208;21.192;2023-12-20T06:08:19;99498.58;;;6.62;92.76
39177;BME280;24904;52.208;21.192;2023-12-20T06:13:22;99500.05;;;6.68;92.68
39177;BME280;24904;52.208;21.192;2023-12-20T06:18:25;99506.30;;;6.70;92.41
39177;BME280;24904;52.208;21.192;2023-12-20T06:23:28;99504.59;;;6.70;92.28
39177;BME280;24904;52.208;21.192;2023-12-20T06:28:31;99505.70;;;6.72;92.28
39177;BME280;24904;52.208;21.192;2023-12-20T06:33:34;99512.85;;;6.70;92.21
39177;BME280;24904;52.208;21.192;2023-12-20T06:38:38;99512.39;;;6.70;92.11
39177;BME280;24904;52.208;21.192;2023-12-20T06:43:41;99507.56;;;6.71;92.03
39177;BME280;24904;52.208;21.192;2023-12-20T06:48:44;99508.92;;;6.74;92.17
39177;BME280;24904;52.208;21.192;2023-12-20T06:53:47;99508.69;;;6.74;92.05
39177;BME280;24904;52.208;21.192;2023-12-20T06:58:50;99507.64;;;6.70;91.69
39177;BME280;24904;52.208;21.192;2023-12-20T07:03:53;99508.09;;;6.69;91.97
39177;BME280;24904;52.208;21.192;2023-12-20T07:08:56;99505.77;;;6.71;91.92
39177;BME280;24904;52.208;21.192;2023-12-20T07:14:00;99508.14;;;6.67;91.78
39177;BME280;24904;52.208;21.192;2023-12-20T07:19:03;99510.13;;;6.70;91.95
39177;BME280;24904;52.208;21.192;2023-12-20T07:24:07;99509.76;;;6.71;91.83
39177;BME280;24904;52.208;21.192;2023-12-20T07:29:10;99512.29;;;6.75;91.86
39177;BME280;24904;52.208;21.192;2023-12-20T07:34:13;99513.06;;;6.74;91.70
39177;BME280;24904;52.208;21.192;2023-12-20T07:39:16;99516.77;;;6.76;91.82
39177;BME280;24904;52.208;21.192;2023-12-20T07:44:19;99508.91;;;6.78;91.75
39177;BME280;24904;52.208;21.192;2023-12-20T07:49:22;99512.09;;;6.76;91.72
39177;BME280;24904;52.208;21.192;2023-12-20T07:54:25;99512.10;;;6.78;92.05
39177;BME280;24904;52.208;21.192;2023-12-20T07:59:32;99508.77;;;6.74;91.67
39177;BME280;24904;52.208;21.192;2023-12-20T08:04:38;99507.08;;;6.76;91.89
39177;BME280;24904;52.208;21.192;2023-12-20T08:09:44;99511.25;;;6.73;91.98
39177;BME280;24904;52.208;21.192;2023-12-20T08:14:47;99512.36;;;6.75;92.00
39177;BME280;24904;52.208;21.192;2023-12-20T08:19:51;99509.92;;;6.74;91.97
39177;BME280;24904;52.208;21.192;2023-12-20T08:24:55;99506.93;;;6.70;91.96
39177;BME280;24904;52.208;21.192;2023-12-20T08:29:58;99506.52;;;6.68;92.05
39177;BME280;24904;52.208;21.192;2023-12-20T08:35:01;99503.71;;;6.69;91.98
39177;BME280;24904;52.208;21.192;2023-12-20T08:40:07;99506.10;;;6.66;92.11
39177;BME280;24904;52.208;21.192;2023-12-20T08:45:11;99509.36;;;6.64;92.01
39177;BME280;24904;52.208;21.192;2023-12-20T08:50:14;99509.21;;;6.65;91.99
39177;BME280;24904;52.208;21.192;2023-12-20T08:55:18;99508.18;;;6.63;92.22
39177;BME280;24904;52.208;21.192;2023-12-20T09:00:22;99507.77;;;6.69;92.27
39177;BME280;24904;52.208;21.192;2023-12-20T09:05:26;99498.77;;;6.71;92.11
39177;BME280;24904;52.208;21.192;2023-12-20T09:10:30;99490.80;;;6.71;91.91
39177;BME280;24904;52.208;21.192;2023-12-20T09:15:33;99486.85;;;6.74;92.08
39177;BME280;24904;52.208;21.192;2023-12-20T09:20:36;99485.58;;;6.76;92.01
39177;BME280;24904;52.208;21.192;2023-12-20T09:25:39;99475.07;;;6.77;91.96
39177;BME280;24904;52.208;21.192;2023-12-20T09:30:43;99469.77;;;6.78;92.04
39177;BME280;24904;52.208;21.192;2023-12-20T09:35:47;99465.41;;;6.72;91.86
39177;BME280;24904;52.208;21.192;2023-12-20T09:40:51;99459.96;;;6.73;92.10
39177;BME280;24904;52.208;21.192;2023-12-20T09:45:54;99454.02;;;6.72;92.00
39177;BME280;24904;52.208;21.192;2023-12-20T09:51:03;99445.77;;;6.72;91.94
39177;BME280;24904;52.208;21.192;2023-12-20T09:56:07;99443.75;;;6.74;92.06
39177;BME280;24904;52.208;21.192;2023-12-20T10:01:10;99434.73;;;6.75;92.19
39177;BME280;24904;52.208;21.192;2023-12-20T10:06:14;99435.10;;;6.78;91.90
39177;BME280;24904;52.208;21.192;2023-12-20T10:11:17;99435.88;;;6.79;92.05
39177;BME280;24904;52.208;21.192;2023-12-20T10:16:25;99436.51;;;6.79;92.16
39177;BME280;24904;52.208;21.192;2023-12-20T10:21:28;99434.27;;;6.75;91.95
39177;BME280;24904;52.208;21.192;2023-12-20T10:26:31;99434.65;;;6.75;92.10
39177;BME280;24904;52.208;21.192;2023-12-20T10:31:35;99428.81;;;6.75;92.23
39177;BME280;24904;52.208;21.192;2023-12-20T10:36:38;99428.67;;;6.77;92.17
39177;BME280;24904;52.208;21.192;2023-12-20T10:41:42;99417.58;;;6.74;92.44
39177;BME280;24904;52.208;21.192;2023-12-20T10:46:47;99414.98;;;6.74;92.43
39177;BME280;24904;52.208;21.192;2023-12-20T10:51:55;99415.30;;;6.73;92.42
39177;BME280;24904;52.208;21.192;2023-12-20T10:57:00;99418.50;;;6.73;92.29
39177;BME280;24904;52.208;21.192;2023-12-20T11:02:06;99409.61;;;6.73;92.13
39177;BME280;24904;52.208;21.192;2023-12-20T11:07:19;99403.92;;;6.73;92.32
39177;BME280;24904;52.208;21.192;2023-12-20T11:12:32;99400.08;;;6.70;92.29
39177;BME280;24904;52.208;21.192;2023-12-20T11:17:39;99388.39;;;6.70;92.53
39177;BME280;24904;52.208;21.192;2023-12-20T11:22:53;99379.91;;;6.72;92.45
39177;BME280;24904;52.208;21.192;2023-12-20T11:28:10;99372.20;;;6.73;92.31
39177;BME280;24904;52.208;21.192;2023-12-20T11:33:14;99365.65;;;6.73;92.45
39177;BME280;24904;52.208;21.192;2023-12-20T11:38:20;99363.61;;;6.72;92.24
39177;BME280;24904;52.208;21.192;2023-12-20T11:43:34;99355.06;;;6.74;92.31
39177;BME280;24904;52.208;21.192;2023-12-20T11:48:39;99351.24;;;6.74;92.45
39177;BME280;24904;52.208;21.192;2023-12-20T11:53:43;99345.89;;;6.75;92.37
39177;BME280;24904;52.208;21.192;2023-12-20T11:58:46;99343.00;;;6.75;92.35
39177;BME280;24904;52.208;21.192;2023-12-20T12:04:03;99332.27;;;6.76;92.15
39177;BME280;24904;52.208;21.192;2023-12-20T12:09:06;99326.86;;;6.76;92.28
39177;BME280;24904;52.208;21.192;2023-12-20T12:14:10;99321.90;;;6.77;92.09
39177;BME280;24904;52.208;21.192;2023-12-20T12:19:21;99317.63;;;6.72;92.17
39177;BME280;24904;52.208;21.192;2023-12-20T12:24:25;99317.04;;;6.66;92.09
39177;BME280;24904;52.208;21.192;2023-12-20T12:29:28;99312.10;;;6.63;92.03
39177;BME280;24904;52.208;21.192;2023-12-20T12:34:31;99303.64;;;6.60;92.30
39177;BME280;24904;52.208;21.192;2023-12-20T12:39:35;99302.81;;;6.47;91.91
39177;BME280;24904;52.208;21.192;2023-12-20T12:44:38;99293.44;;;6.30;91.91
39177;BME280;24904;52.208;21.192;2023-12-20T12:49:42;99296.60;;;6.27;92.12
39177;BME280;24904;52.208;21.192;2023-12-20T12:54:45;99298.77;;;6.24;92.37
39177;BME280;24904;52.208;21.192;2023-12-20T12:59:49;99287.58;;;6.14;91.97
39177;BME280;24904;52.208;21.192;2023-12-20T13:04:52;99300.56;;;5.99;91.69
39177;BME280;24904;52.208;21.192;2023-12-20T13:09:55;99296.72;;;5.91;92.59
39177;BME280;24904;52.208;21.192;2023-12-20T13:14:58;99294.48;;;5.89;92.85
39177;BME280;24904;52.208;21.192;2023-12-20T13:20:01;99298.02;;;5.84;92.71
39177;BME280;24904;52.208;21.192;2023-12-20T13:25:07;99300.59;;;5.85;92.82
39177;BME280;24904;52.208;21.192;2023-12-20T13:30:12;99304.23;;;5.83;92.69
39177;BME280;24904;52.208;21.192;2023-12-20T13:35:15;99301.14;;;5.79;92.59
39177;BME280;24904;52.208;21.192;2023-12-20T13:40:19;99295.42;;;5.77;92.61
39177;BME280;24904;52.208;21.192;2023-12-20T13:45:22;99300.21;;;5.74;92.66
39177;BME280;24904;52.208;21.192;2023-12-20T13:50:27;99295.00;;;5.75;92.55
39177;BME280;24904;52.208;21.192;2023-12-20T13:55:31;99295.52;;;5.72;91.96
39177;BME280;24904;52.208;21.192;2023-12-20T14:00:34;99291.16;;;5.72;92.03
39177;BME280;24904;52.208;21.192;2023-12-20T14:05:38;99295.90;;;5.72;92.08
39177;BME280;24904;52.208;21.192;2023-12-20T14:10:41;99296.36;;;5.70;92.06
39177;BME280;24904;52.208;21.192;2023-12-20T14:15:45;99284.52;;;5.69;91.85
39177;BME280;24904;52.208;21.192;2023-12-20T14:20:49;99288.11;;;5.70;91.83
39177;BME280;24904;52.208;21.192;2023-12-20T14:25:53;99300.19;;;5.65;91.58
39177;BME280;24904;52.208;21.192;2023-12-20T14:30:58;99296.47;;;5.66;91.50
39177;BME280;24904;52.208;21.192;2023-12-20T14:36:01;99307.52;;;5.73;91.45
39177;BME280;24904;52.208;21.192;2023-12-20T14:41:07;99314.52;;;5.78;91.37
39177;BME280;24904;52.208;21.192;2023-12-20T14:46:11;99317.91;;;5.81;91.12
39177;BME280;24904;52.208;21.192;2023-12-20T14:51:14;99313.08;;;5.80;91.03
39177;BME280;24904;52.208;21.192;2023-12-20T14:56:17;99314.98;;;5.84;91.10
39177;BME280;24904;52.208;21.192;2023-12-20T15:01:20;99315.63;;;5.86;90.59
39177;BME280;24904;52.208;21.192;2023-12-20T15:06:24;99313.69;;;5.87;90.25
39177;BME280;24904;52.208;21.192;2023-12-20T15:11:28;99312.19;;;5.85;89.79
39177;BME280;24904;52.208;21.192;2023-12-20T15:16:31;99308.14;;;5.85;89.34
39177;BME280;24904;52.208;21.192;2023-12-20T15:21:34;99301.60;;;5.84;89.16
39177;BME280;24904;52.208;21.192;2023-12-20T15:26:43;99298.02;;;5.85;89.12
39177;BME280;24904;52.208;21.192;2023-12-20T15:31:46;99295.36;;;5.83;88.46
39177;BME280;24904;52.208;21.192;2023-12-20T15:36:50;99294.59;;;5.78;88.16
39177;BME280;24904;52.208;21.192;2023-12-20T15:41:53;99296.19;;;5.76;88.09
39177;BME280;24904;52.208;21.192;2023-12-20T15:46:56;99289.31;;;5.74;87.87
39177;BME280;24904;52.208;21.192;2023-12-20T15:51:59;99284.08;;;5.72;87.66
39177;BME280;24904;52.208;21.192;2023-12-20T15:57:03;99282.29;;;5.72;87.74
39177;BME280;24904;52.208;21.192;2023-12-20T16:02:06;99279.04;;;5.74;87.42
39177;BME280;24904;52.208;21.192;2023-12-20T16:07:09;99268.85;;;5.80;87.41
39177;BME280;24904;52.208;21.192;2023-12-20T16:12:12;99263.45;;;5.83;87.08
39177;BME280;24904;52.208;21.192;2023-12-20T16:17:15;99253.64;;;5.83;86.75
39177;BME280;24904;52.208;21.192;2023-12-20T16:22:19;99251.31;;;5.83;86.83
39177;BME280;24904;52.208;21.192;2023-12-20T16:27:22;99246.73;;;5.78;86.15
39177;BME280;24904;52.208;21.192;2023-12-20T16:32:25;99241.83;;;5.72;86.07
39177;BME280;24904;52.208;21.192;2023-12-20T16:37:28;99239.56;;;5.71;85.93
39177;BME280;24904;52.208;21.192;2023-12-20T16:42:31;99244.00;;;5.72;85.89
39177;BME280;24904;52.208;21.192;2023-12-20T16:47:35;99246.02;;;5.72;85.64
39177;BME280;24904;52.208;21.192;2023-12-20T16:52:39;99237.20;;;5.75;85.78
39177;BME280;24904;52.208;21.192;2023-12-20T16:57:42;99237.37;;;5.77;85.50
39177;BME280;24904;52.208;21.192;2023-12-20T17:02:45;99238.63;;;5.77;85.29
39177;BME280;24904;52.208;21.192;2023-12-20T17:07:49;99234.23;;;5.80;85.37
39177;BME280;24904;52.208;21.192;2023-12-20T17:12:52;99234.38;;;5.79;85.13
39177;BME280;24904;52.208;21.192;2023-12-20T17:17:55;99229.48;;;5.80;84.95
39177;BME280;24904;52.208;21.192;2023-12-20T17:22:58;99229.08;;;5.78;84.55
39177;BME280;24904;52.208;21.192;2023-12-20T17:28:01;99224.27;;;5.74;84.49
39177;BME280;24904;52.208;21.192;2023-12-20T17:33:05;99214.16;;;5.76;84.53
39177;BME280;24904;52.208;21.192;2023-12-20T17:38:09;99212.05;;;5.80;84.48
39177;BME280;24904;52.208;21.192;2023-12-20T17:43:12;99208.33;;;5.82;84.17
39177;BME280;24904;52.208;21.192;2023-12-20T17:48:15;99201.38;;;5.79;84.15
39177;BME280;24904;52.208;21.192;2023-12-20T17:53:18;99199.64;;;5.77;84.00
39177;BME280;24904;52.208;21.192;2023-12-20T17:58:21;99200.38;;;5.80;83.90
39177;BME280;24904;52.208;21.192;2023-12-20T18:03:25;99193.37;;;5.80;84.02
39177;BME280;24904;52.208;21.192;2023-12-20T18:08:28;99184.67;;;5.82;83.76
39177;BME280;24904;52.208;21.192;2023-12-20T18:13:31;99175.98;;;5.85;84.02
39177;BME280;24904;52.208;21.192;2023-12-20T18:18:34;99168.30;;;5.87;83.47
39177;BME280;24904;52.208;21.192;2023-12-20T18:23:37;99167.58;;;5.85;83.15
39177;BME280;24904;52.208;21.192;2023-12-20T18:28:40;99160.61;;;5.80;83.10
39177;BME280;24904;52.208;21.192;2023-12-20T18:33:43;99153.23;;;5.82;83.56
39177;BME280;24904;52.208;21.192;2023-12-20T18:38:46;99151.77;;;5.83;83.58
39177;BME280;24904;52.208;21.192;2023-12-20T18:43:49;99157.60;;;5.82;83.40
39177;BME280;24904;52.208;21.192;2023-12-20T18:48:53;99148.48;;;5.81;83.40
39177;BME280;24904;52.208;21.192;2023-12-20T18:53:56;99145.61;;;5.81;83.59
39177;BME280;24904;52.208;21.192;2023-12-20T18:58:59;99142.09;;;5.79;83.22
39177;BME280;24904;52.208;21.192;2023-12-20T19:04:02;99138.52;;;5.82;83.39
39177;BME280;24904;52.208;21.192;2023-12-20T19:09:05;99143.52;;;5.84;83.24
39177;BME280;24904;52.208;21.192;2023-12-20T19:14:09;99142.33;;;5.80;83.04
39177;BME280;24904;52.208;21.192;2023-12-20T19:19:15;99146.70;;;5.76;82.99
39177;BME280;24904;52.208;21.192;2023-12-20T19:24:18;99152.47;;;5.77;83.31
39177;BME280;24904;52.208;21.192;2023-12-20T19:29:21;99160.45;;;5.74;83.77
39177;BME280;24904;52.208;21.192;2023-12-20T19:34:24;99163.11;;;5.60;83.63
39177;BME280;24904;52.208;21.192;2023-12-20T19:39:28;99161.79;;;5.41;83.72
39177;BME280;24904;52.208;21.192;2023-12-20T19:44:31;99173.80;;;5.24;83.52
39177;BME280;24904;52.208;21.192;2023-12-20T19:49:34;99182.32;;;5.05;83.62
39177;BME280;24904;52.208;21.192;2023-12-20T19:54:37;99187.19;;;4.88;83.37
39177;BME280;24904;52.208;21.192;2023-12-20T19:59:40;99185.61;;;4.75;83.36
39177;BME280;24904;52.208;21.192;2023-12-20T20:04:43;99172.54;;;4.68;83.99
39177;BME280;24904;52.208;21.192;2023-12-20T20:09:47;99177.73;;;4.63;83.40
39177;BME280;24904;52.208;21.192;2023-12-20T20:14:50;99176.70;;;4.56;83.53
39177;BME280;24904;52.208;21.192;2023-12-20T20:19:53;99185.27;;;4.52;83.78
39177;BME280;24904;52.208;21.192;2023-12-20T20:24:57;99195.61;;;4.44;83.78
39177;BME280;24904;52.208;21.192;2023-12-20T20:30:00;99195.36;;;4.38;83.78
39177;BME280;24904;52.208;21.192;2023-12-20T20:35:03;99193.98;;;4.22;83.86
39177;BME280;24904;52.208;21.192;2023-12-20T20:40:08;99185.29;;;4.12;84.03
39177;BME280;24904;52.208;21.192;2023-12-20T20:45:13;99193.27;;;4.12;84.32
39177;BME280;24904;52.208;21.192;2023-12-20T20:50:17;99198.21;;;4.02;84.05
39177;BME280;24904;52.208;21.192;2023-12-20T20:55:20;99202.05;;;3.92;84.09
39177;BME280;24904;52.208;21.192;2023-12-20T21:00:23;99203.98;;;3.87;84.35
39177;BME280;24904;52.208;21.192;2023-12-20T21:05:26;99208.92;;;3.80;84.34
39177;BME280;24904;52.208;21.192;2023-12-20T21:10:29;99214.27;;;3.78;84.06
39177;BME280;24904;52.208;21.192;2023-12-20T21:15:32;99209.92;;;3.78;84.36
39177;BME280;24904;52.208;21.192;2023-12-20T21:20:36;99217.67;;;3.77;84.33
39177;BME280;24904;52.208;21.192;2023-12-20T21:25:39;99210.75;;;3.76;84.36
39177;BME280;24904;52.208;21.192;2023-12-20T21:30:42;99208.10;;;3.75;84.49
39177;BME280;24904;52.208;21.192;2023-12-20T21:35:45;99206.48;;;3.79;84.78
39177;BME280;24904;52.208;21.192;2023-12-20T21:40:48;99213.39;;;3.83;84.06
39177;BME280;24904;52.208;21.192;2023-12-20T21:45:51;99213.87;;;3.80;83.94
39177;BME280;24904;52.208;21.192;2023-12-20T21:50:54;99216.64;;;3.76;84.05
39177;BME280;24904;52.208;21.192;2023-12-20T21:55:57;99223.19;;;3.78;83.98
39177;BME280;24904;52.208;21.192;2023-12-20T22:01:01;99222.35;;;3.78;83.95
39177;BME280;24904;52.208;21.192;2023-12-20T22:06:04;99223.16;;;3.83;84.06
39177;BME280;24904;52.208;21.192;2023-12-20T22:11:08;99216.90;;;3.89;84.01
39177;BME280;24904;52.208;21.192;2023-12-20T22:16:11;99220.86;;;3.93;83.21
39177;BME280;24904;52.208;21.192;2023-12-20T22:21:16;99222.02;;;4.02;83.22
39177;BME280;24904;52.208;21.192;2023-12-20T22:26:20;99222.38;;;4.08;82.15
39177;BME280;24904;52.208;21.192;2023-12-20T22:31:23;99225.73;;;4.13;81.49
39177;BME280;24904;52.208;21.192;2023-12-20T22:36:26;99225.42;;;4.22;81.74
39177;BME280;24904;52.208;21.192;2023-12-20T22:41:30;99225.75;;;4.27;80.84
39177;BME280;24904;52.208;21.192;2023-12-20T22:46:33;99226.02;;;4.29;80.43
39177;BME280;24904;52.208;21.192;2023-12-20T22:51:37;99225.41;;;4.30;79.26
39177;BME280;24904;52.208;21.192;2023-12-20T22:56:40;99221.13;;;4.29;79.19
39177;BME280;24904;52.208;21.192;2023-12-20T23:01:43;99221.66;;;4.29;79.85
39177;BME280;24904;52.208;21.192;2023-12-20T23:06:46;99223.88;;;4.31;80.09
39177;BME280;24904;52.208;21.192;2023-12-20T23:11:49;99226.11;;;4.30;80.30
39177;BME280;24904;52.208;21.192;2023-12-20T23:16:52;99233.34;;;4.22;79.82
39177;BME280;24904;52.208;21.192;2023-12-20T23:21:55;99236.80;;;4.15;79.77
39177;BME280;24904;52.208;21.192;2023-12-20T23:26:59;99228.82;;;4.17;79.98
39177;BME280;24904;52.208;21.192;2023-12-20T23:32:02;99214.58;;;4.19;80.06
39177;BME280;24904;52.208;21.192;2023-12-20T23:37:05;99215.12;;;4.23;79.99
39177;BME280;24904;52.208;21.192;2023-12-20T23:42:08;99215.65;;;4.22;80.36
39177;BME280;24904;52.208;21.192;2023-12-20T23:47:11;99211.28;;;4.12;81.20
39177;BME280;24904;52.208;21.192;2023-12-20T23:52:15;99200.83;;;4.09;81.77
39177;BME280;24904;52.208;21.192;2023-12-20T23:57:18;99194.56;;;4.03;81.94
